Edmonton Stony Plain Alta., Canada
Current Conditions -  °F | °C
As of 1:00 PM on Friday 28 Nov 2014 (Local Time) from CWSE Reporting Station
Scattered Clouds Scattered Clouds  
Wind Chill: -23°   Ceiling: Unl
Heat Index: -7°   Visibility: 15mi
Dew Point: -16°   Wind: 8mph
Humidity: 66%   Direction: 310°NW
Pressure: 29.78"   Gusts: NA
Location:  53.53°N, 114.1°W
Report Text: CWSE 282000Z 31007KT 15SM FEW015 FEW039 SCT074 M22/M27 A2978 RMK SLP185 /S04 AFT 12Z/ T12171266 WSI/SWOB
Loading
Personal Weather Stations






























Interactive Weather Map New forecast layout! Learn more

10-Day Weather Forecast

Advertisements
Track Severe Weather on mobile